CheckWX is a tool to help pilots better visualize weather data.  It is not intended as a substitute for an official pre-flight weather briefing.

14:58:38 UTC

KHOP TAF
Campbell AAF (Fort Campbell) Airport
Fort Campbell/Hopkinsville, Kentucky, USA
TAF KHOP 190800Z 1908/2014 17006KT 9000 -RA SCT010 OVC025 620608 QNH2978INS BECMG 1910/1911 19006KT 9999 NSW SCT015 OVC030 QNH2978INS BECMG 1915/1916 27012G18KT 9999 BKN020 OVC030 QNH2981INS BECMG 1922/1923 30006KT 9999 SCT020 QNH2994INS TX15/1921Z TN03/1911Z

Nov-19@
08:00 UTC

Nov-19 @ 08:00 UTC

Nov-19@
10:00 UTC

Nov-19 @ 10:00 UTC

TAF KHOP 190800Z 1908/2014 17006KT 9000 -RA SCT010 OVC025 620608 QNH2978INS

Expired

Wind
  • 170° at 6 KTS
Conditions
Light Rain
Cloud Levels
  • Scattered at 1,000' AGL
  • Overcast at 2,500' AGL
Icing
Light icing in cloud expected at 6,000' AGL extending to 14,000' AGL

Nov-19@
10:00 UTC

Nov-19 @ 10:00 UTC

Nov-19@
15:00 UTC

Nov-19 @ 15:00 UTC

BECMG 1910/1911 19006KT 9999 NSW SCT015 OVC030 QNH2978INS

Becoming

Becoming Conditions expected by Tue, Nov 19, 2019 @ 11:00 UTC

Wind
  • 190° at 6 KTS
Conditions
No significant weather
Cloud Levels
  • Scattered at 1,500' AGL
  • Overcast at 3,000' AGL

Nov-19@
15:00 UTC

Nov-19 @ 15:00 UTC

Nov-19@
22:00 UTC

Nov-19 @ 22:00 UTC

BECMG 1915/1916 27012G18KT 9999 BKN020 OVC030 QNH2981INS

Becoming

Becoming Conditions expected by Tue, Nov 19, 2019 @ 16:00 UTC

Wind
  • 270° at 12 KTS
  • {Gusting to 18 KTS
Conditions
No significant weather
Cloud Levels
  • Broken at 2,000' AGL
  • Overcast at 3,000' AGL

Nov-19@
22:00 UTC

Nov-19 @ 22:00 UTC

Nov-20@
14:00 UTC

Nov-20 @ 14:00 UTC

BECMG 1922/1923 30006KT 9999 SCT020 QNH2994INS TX15/1921Z TN03/1911Z

Becoming

Becoming Conditions expected by Tue, Nov 19, 2019 @ 23:00 UTC

Wind
  • 300° at 6 KTS
Conditions
No significant weather
Cloud Levels
  • Scattered at 2,000' AGL